Archival Weather

Central Park

Central Park, New York (KNYC)

Report from: Tuesday, September 19, 2023 10:51 PM EDT
Current time: Friday, June 21, 2024 8:21 PM EDT

Current weather – Weather history – Daily summaries
Weather forecast

Temperature17.8°C (64.0°F)
Dew point9.4°C (48.9°F)
Winds 3 kts (1.5 m/s, 3.5 mph) West (270°)
Visibility10 mi. (16.1 km)
Clouds Sky clear
Altimeter30.09 in.Hg (1019 mB)
Relative humidity58 %
Density altitude334 ft. (102 m)
Sea-level pressure101.8 kPa (1018 mB, 30.06 in.Hg)
Remarks Fully automated report
System requires maintenance
Automated weather observing station with precipitation discriminator
Pressure rising more quickly
Flight conditions Visual Meteorological Conditions
Raw dataKNYC 200251Z AUTO 27003KT 10SM CLR 18/09 A3009 RMK AO2 SLP181 T01780094 53018 $
An error has occurred. This application may no longer respond until reloaded. Reload 🗙